Time;durP1;ratioP1;P1;durP2;ratioP2;P2;SDS_P1;SDS_P2;PMS_P1;PMS_P2;Temp;Humidity;BMP_temperature;BMP_pressure;BME280_temperature;BME280_humidity;BME280_pressure;Samples;Min_cycle;Max_cycle;Signal;HPM_P1;HPM_P2
2023/03/12 00:02:11;;;;;;;6.93;1.55;;;;;;;2.23;100.00;99565.00;5057451;28;20052;-87
2023/03/12 00:04:38;;;;;;;7.72;1.77;;;;;;;2.06;100.00;99505.13;5058200;28;20055;-87
2023/03/12 00:07:06;;;;;;;9.40;2.00;;;;;;;2.56;100.00;99566.81;5071128;28;20398;-88
2023/03/12 00:09:38;;;;;;;7.60;1.58;;;;;;;2.65;100.00;99564.03;5064481;28;20087;-87
2023/03/12 00:12:05;;;;;;;3.60;1.30;;;;;;;2.32;100.00;99499.34;5076400;28;20401;-88
2023/03/12 00:14:32;;;;;;;5.20;1.50;;;;;;;2.20;100.00;99476.41;5085390;28;20163;-87
2023/03/12 00:16:59;;;;;;;5.35;1.30;;;;;;;2.25;100.00;99483.16;5070309;28;20470;-87
2023/03/12 00:19:26;;;;;;;4.85;1.55;;;;;;;2.36;100.00;99484.63;5065558;28;20059;-87
2023/03/12 00:21:52;;;;;;;4.68;1.70;;;;;;;2.40;100.00;99475.91;5072450;28;20048;-87
2023/03/12 00:24:19;;;;;;;5.40;1.50;;;;;;;2.65;100.00;99492.50;5091023;28;20490;-88
2023/03/12 00:26:46;;;;;;;6.05;1.60;;;;;;;2.47;100.00;99495.53;5075923;28;20139;-88
2023/03/12 00:29:13;;;;;;;6.35;1.65;;;;;;;2.57;100.00;99504.78;5076138;28;20036;-88
2023/03/12 00:31:40;;;;;;;8.57;1.60;;;;;;;2.05;100.00;99450.06;5064699;28;20525;-87
2023/03/12 00:34:09;;;;;;;9.68;1.63;;;;;;;2.27;100.00;99460.72;5074366;28;20051;-88
2023/03/12 00:36:36;;;;;;;9.02;2.05;;;;;;;2.51;100.00;99473.91;5062519;28;20045;-87
2023/03/12 00:39:03;;;;;;;10.10;1.80;;;;;;;2.44;100.00;99442.22;5079987;28;20055;-87
2023/03/12 00:41:29;;;;;;;8.20;1.73;;;;;;;2.45;100.00;99441.31;5064735;28;20056;-87
2023/03/12 00:43:56;;;;;;;8.85;1.90;;;;;;;2.20;100.00;99399.75;5066363;28;20048;-87
2023/03/12 00:46:23;;;;;;;8.15;2.00;;;;;;;2.45;100.00;99431.00;5074781;28;20395;-87
2023/03/12 00:48:50;;;;;;;7.10;2.10;;;;;;;2.35;100.00;99433.84;5069087;28;20127;-87
2023/03/12 00:51:17;;;;;;;6.97;2.00;;;;;;;2.68;100.00;99459.72;5081402;28;20056;-87
2023/03/12 00:53:44;;;;;;;9.07;2.45;;;;;;;2.23;100.00;99434.97;5079888;28;20059;-87
2023/03/12 00:56:11;;;;;;;8.20;2.10;;;;;;;2.08;100.00;99387.16;5074407;28;20055;-87
2023/03/12 00:58:38;;;;;;;12.50;3.35;;;;;;;2.07;100.00;99408.69;5061735;28;20043;-86
2023/03/12 01:01:05;;;;;;;10.15;2.70;;;;;;;2.15;100.00;99411.94;5076092;28;20747;-88
2023/03/12 01:03:32;;;;;;;10.65;2.85;;;;;;;2.24;100.00;99421.19;5060134;28;20048;-87
2023/03/12 01:05:59;;;;;;;15.68;4.10;;;;;;;2.18;100.00;99383.47;5070637;28;20062;-87
2023/03/12 01:08:26;;;;;;;9.32;3.38;;;;;;;2.15;100.00;99346.53;5056362;28;20045;-86
2023/03/12 01:10:52;;;;;;;8.68;2.90;;;;;;;2.00;100.00;99340.88;5071764;28;20059;-86
2023/03/12 01:13:19;;;;;;;5.90;2.20;;;;;;;2.40;100.00;99345.00;5073948;28;20675;-87
2023/03/12 01:15:46;;;;;;;7.70;2.30;;;;;;;2.64;100.00;99379.69;5071406;28;20403;-86
2023/03/12 01:18:13;;;;;;;10.77;2.83;;;;;;;2.20;100.00;99326.63;5074564;28;20465;-86
2023/03/12 01:20:40;;;;;;;10.45;2.78;;;;;;;2.31;100.00;99326.34;5054613;28;20048;-86
2023/03/12 01:23:08;;;;;;;7.53;2.45;;;;;;;2.62;100.00;99393.53;5054437;28;20059;-86
2023/03/12 01:25:35;;;;;;;8.55;2.38;;;;;;;2.59;100.00;99349.69;5054775;28;20102;-87
2023/03/12 01:28:03;;;;;;;7.78;2.67;;;;;;;2.69;100.00;99369.22;5072476;28;20049;-86
2023/03/12 01:30:30;;;;;;;11.25;2.65;;;;;;;2.58;100.00;99325.56;5074476;28;20394;-87
2023/03/12 01:32:57;;;;;;;8.75;2.72;;;;;;;2.92;100.00;99375.50;5063113;28;20439;-87
2023/03/12 01:35:24;;;;;;;10.55;3.22;;;;;;;2.76;100.00;99333.72;5074692;28;20953;-87
2023/03/12 01:37:51;;;;;;;11.82;2.95;;;;;;;2.25;100.00;99265.38;5061857;28;20044;-87
2023/03/12 01:40:24;;;;;;;11.05;2.97;;;;;;;2.53;100.00;99336.94;5073648;28;20044;-86
2023/03/12 01:42:55;;;;;;;11.17;3.13;;;;;;;2.87;100.00;99349.78;5074697;28;20384;-86
2023/03/12 01:45:59;;;;;;;11.00;2.70;;;;;;;2.72;100.00;99332.09;5059522;28;20289;-87
2023/03/12 01:48:30;;;;;;;8.82;2.70;;;;;;;2.70;100.00;99323.56;5055093;28;20474;-87
2023/03/12 01:50:59;;;;;;;9.50;2.60;;;;;;;2.60;100.00;99289.34;5057045;28;20706;-87
2023/03/12 01:53:27;;;;;;;10.25;3.35;;;;;;;2.11;100.00;99216.66;5074956;28;20066;-87
2023/03/12 01:55:54;;;;;;;10.18;3.45;;;;;;;2.28;100.00;99249.75;5076945;28;20049;-86
2023/03/12 01:58:21;;;;;;;9.35;3.20;;;;;;;2.51;100.00;99250.88;5054883;28;20048;-87
2023/03/12 02:00:48;;;;;;;10.32;3.20;;;;;;;2.92;100.00;99314.31;5058543;28;20047;-87
2023/03/12 02:03:15;;;;;;;11.27;3.80;;;;;;;2.51;100.00;99236.19;5078728;28;20063;-87
2023/03/12 02:05:53;;;;;;;11.68;2.90;;;;;;;2.60;100.00;99295.41;5060795;28;20056;-87
2023/03/12 02:08:23;;;;;;;7.85;2.63;;;;;;;2.20;100.00;99224.16;5074367;28;20774;-87
2023/03/12 02:10:50;;;;;;;8.85;2.28;;;;;;;2.47;100.00;99224.28;5070519;28;20559;-87
2023/03/12 02:13:17;;;;;;;10.93;2.95;;;;;;;2.89;100.00;99278.19;5077937;28;20076;-87
2023/03/12 02:15:44;;;;;;;8.40;2.47;;;;;;;2.95;100.00;99290.94;5072374;28;20055;-87
2023/03/12 02:18:15;;;;;;;8.93;2.45;;;;;;;2.91;100.00;99247.97;5074699;28;20056;-87
2023/03/12 02:20:51;;;;;;;12.55;2.80;;;;;;;3.13;100.00;99286.94;5073835;28;20044;-88
2023/03/12 02:23:26;;;;;;;9.07;2.80;;;;;;;2.98;100.00;99257.22;5063983;28;20052;-88
2023/03/12 02:25:55;;;;;;;9.23;2.63;;;;;;;2.93;100.00;99238.41;5061231;28;20059;-87
2023/03/12 02:28:25;;;;;;;12.27;2.80;;;;;;;2.93;100.00;99232.41;5090707;28;20043;-86
2023/03/12 02:30:57;;;;;;;8.13;2.58;;;;;;;3.05;100.00;99265.66;5059636;28;20044;-86
2023/03/12 02:33:24;;;;;;;9.07;2.88;;;;;;;2.54;100.00;99187.03;5078343;28;20467;-86
2023/03/12 02:35:51;;;;;;;13.57;4.45;;;;;;;2.60;100.00;99189.44;5072543;28;20048;-87
2023/03/12 02:38:43;;;;;;;8.45;3.33;;;;;;;3.04;100.00;99235.50;5063880;28;20087;-87
2023/03/12 02:41:18;;;;;;;11.02;3.30;;;;;;;3.03;100.00;99232.06;5060584;28;20435;-86
2023/03/12 02:43:50;;;;;;;12.02;3.00;;;;;;;2.61;100.00;99121.34;5074793;28;20044;-86
2023/03/12 02:46:17;;;;;;;8.90;3.22;;;;;;;2.56;100.00;99135.31;5060160;28;20049;-87
2023/03/12 02:48:44;;;;;;;10.45;2.85;;;;;;;2.73;100.00;99164.06;5058345;28;20131;-86
2023/03/12 02:51:11;;;;;;;8.95;3.03;;;;;;;3.08;100.00;99195.75;5068312;28;20048;-86
2023/03/12 02:53:37;;;;;;;10.38;2.85;;;;;;;3.14;100.00;99163.66;5075284;28;20056;-86
2023/03/12 02:56:05;;;;;;;14.88;3.13;;;;;;;3.00;100.00;99136.50;5063808;28;20611;-87
2023/03/12 02:58:32;;;;;;;13.25;3.03;;;;;;;3.13;100.00;99133.50;5088548;28;20059;-85
2023/03/12 03:00:59;;;;;;;12.40;3.13;;;;;;;2.96;100.00;99145.25;5059288;28;20055;-86
2023/03/12 03:03:26;;;;;;;12.63;3.15;;;;;;;3.38;100.00;99159.41;5064510;28;20056;-86
2023/03/12 03:05:53;;;;;;;12.07;1.95;;;;;;;3.07;100.00;99118.22;5067079;28;20052;-86
2023/03/12 03:08:19;;;;;;;11.00;2.40;;;;;;;3.12;100.00;99109.41;5063449;28;20051;-86
2023/03/12 03:10:46;;;;;;;8.13;2.60;;;;;;;2.90;100.00;99073.03;5088652;28;20048;-86
2023/03/12 03:13:13;;;;;;;9.07;2.10;;;;;;;2.92;100.00;99062.66;5057765;28;20055;-85
2023/03/12 03:15:39;;;;;;;8.20;2.55;;;;;;;3.10;100.00;99079.28;5063521;28;20048;-86
2023/03/12 03:18:06;;;;;;;7.68;2.42;;;;;;;3.19;100.00;99060.91;5077873;28;20091;-85
2023/03/12 03:20:33;;;;;;;9.32;2.20;;;;;;;2.99;100.00;99033.97;5091699;28;20041;-86
2023/03/12 03:23:00;;;;;;;7.60;2.53;;;;;;;3.14;100.00;99048.13;5074601;28;20063;-86
2023/03/12 03:25:27;;;;;;;8.90;2.25;;;;;;;3.06;100.00;99023.41;5057071;28;20497;-85
2023/03/12 03:27:54;;;;;;;10.68;2.70;;;;;;;3.01;100.00;99002.88;5065265;28;20055;-86
2023/03/12 03:30:21;;;;;;;9.05;2.30;;;;;;;3.23;100.00;99031.44;5063571;28;20044;-86
2023/03/12 03:32:48;;;;;;;6.40;1.85;;;;;;;3.37;100.00;99078.38;5071280;28;20049;-86
2023/03/12 03:35:16;;;;;;;8.57;2.15;;;;;;;3.30;100.00;99047.59;5057166;28;20098;-85
2023/03/12 03:37:43;;;;;;;6.68;1.92;;;;;;;3.26;100.00;99031.34;5075262;28;20517;-86
2023/03/12 03:40:11;;;;;;;9.93;2.33;;;;;;;3.23;100.00;99034.88;5077612;28;20050;-85
2023/03/12 03:42:38;;;;;;;10.32;2.10;;;;;;;3.24;100.00;99033.16;5073141;28;20409;-86
2023/03/12 03:45:06;;;;;;;9.70;2.83;;;;;;;3.08;100.00;99000.94;5056850;28;20056;-86
2023/03/12 03:47:33;;;;;;;8.00;2.85;;;;;;;3.10;100.00;99010.34;5058433;28;20049;-86
2023/03/12 03:49:59;;;;;;;9.20;3.03;;;;;;;3.05;100.00;98996.72;5075054;28;20051;-86
2023/03/12 03:52:26;;;;;;;11.30;4.45;;;;;;;3.32;100.00;99025.09;5076554;28;20625;-85
2023/03/12 03:54:53;;;;;;;13.45;3.15;;;;;;;3.01;100.00;98959.78;5071212;28;20048;-86
2023/03/12 03:57:20;;;;;;;13.13;3.15;;;;;;;3.18;100.00;98958.34;5055990;28;20052;-85
2023/03/12 03:59:47;;;;;;;9.38;3.78;;;;;;;3.59;100.00;99044.84;5068353;28;20044;-85
2023/03/12 04:02:13;;;;;;;8.02;3.40;;;;;;;3.23;100.00;98964.19;5078289;28;20056;-86
2023/03/12 04:04:40;;;;;;;10.52;3.70;;;;;;;3.30;100.00;98970.84;5075204;28;20453;-86
2023/03/12 04:07:07;;;;;;;14.27;3.92;;;;;;;3.40;100.00;98964.44;5094843;28;20051;-85
2023/03/12 04:09:33;;;;;;;10.60;3.20;;;;;;;3.48;100.00;98973.66;5081253;28;20044;-85
2023/03/12 04:12:00;;;;;;;15.25;3.40;;;;;;;3.56;100.00;98977.66;5065180;28;20056;-86
2023/03/12 04:14:27;;;;;;;8.70;3.67;;;;;;;3.31;100.00;98945.78;5069020;28;20410;-85
2023/03/12 04:16:54;;;;;;;11.18;3.75;;;;;;;3.19;100.00;98942.78;5063058;28;20408;-86
2023/03/12 04:19:20;;;;;;;11.43;3.75;;;;;;;3.42;100.00;98936.75;5072739;28;20106;-85
2023/03/12 04:21:47;;;;;;;13.40;4.40;;;;;;;3.04;100.00;98889.84;5087118;28;20074;-85
2023/03/12 04:24:15;;;;;;;9.77;3.70;;;;;;;3.50;100.00;98966.66;5076113;28;20059;-85
2023/03/12 04:26:42;;;;;;;9.90;3.50;;;;;;;3.17;100.00;98916.13;5059841;28;20053;-85
2023/03/12 04:29:09;;;;;;;9.10;3.33;;;;;;;2.93;100.00;98888.56;5074733;28;20055;-85
2023/03/12 04:31:36;;;;;;;12.00;4.35;;;;;;;3.08;100.00;98910.44;5056844;28;20055;-86
2023/03/12 04:34:03;;;;;;;16.80;5.70;;;;;;;2.88;100.00;98890.47;5075363;28;20423;-85
2023/03/12 04:36:29;;;;;;;12.60;4.72;;;;;;;3.05;100.00;98898.47;5067411;28;20101;-85
2023/03/12 04:38:56;;;;;;;11.48;4.50;;;;;;;3.26;100.00;98903.72;5076598;28;20052;-85
2023/03/12 04:41:23;;;;;;;18.25;5.05;;;;;;;3.07;100.00;98899.25;5073783;28;20411;-85
2023/03/12 04:43:50;;;;;;;12.63;4.80;;;;;;;3.34;100.00;98937.94;5070789;28;20497;-85
2023/03/12 04:46:16;;;;;;;8.65;3.70;;;;;;;2.95;100.00;98859.16;5064737;28;20048;-85
2023/03/12 04:48:43;;;;;;;13.35;5.60;;;;;;;3.18;100.00;98896.28;5075385;28;20067;-85
2023/03/12 04:51:10;;;;;;;9.32;4.45;;;;;;;3.02;100.00;98878.72;5086929;28;20040;-85
2023/03/12 04:53:39;;;;;;;10.07;4.93;;;;;;;3.20;100.00;98925.50;5056866;28;20052;-85
2023/03/12 04:56:06;;;;;;;8.82;4.00;;;;;;;3.11;100.00;98893.06;5069802;28;20048;-85
2023/03/12 04:58:34;;;;;;;9.52;3.70;;;;;;;3.06;100.00;98879.44;5059407;28;20049;-85
2023/03/12 05:01:01;;;;;;;11.63;4.32;;;;;;;2.88;100.00;98834.44;5079235;28;20501;-86
2023/03/12 05:03:28;;;;;;;9.82;3.88;;;;;;;2.92;100.00;98832.56;5056189;28;20067;-85
2023/03/12 05:05:55;;;;;;;9.07;4.28;;;;;;;2.91;100.00;98834.31;5074362;28;20059;-85
2023/03/12 05:08:21;;;;;;;12.30;5.05;;;;;;;3.02;100.00;98865.78;5091236;28;20044;-85
2023/03/12 05:10:48;;;;;;;8.20;3.33;;;;;;;3.18;100.00;98886.75;5071192;28;20451;-85
2023/03/12 05:13:21;;;;;;;9.57;3.95;;;;;;;3.31;100.00;98901.81;5069562;28;20055;-86
2023/03/12 05:15:49;;;;;;;9.07;3.75;;;;;;;2.98;100.00;98860.81;5064919;28;20432;-86
2023/03/12 05:18:16;;;;;;;8.00;3.30;;;;;;;2.99;100.00;98862.47;5074393;28;20048;-86
2023/03/12 05:20:43;;;;;;;8.82;3.55;;;;;;;2.98;100.00;98890.06;5073466;28;20480;-86
2023/03/12 05:23:10;;;;;;;7.40;3.45;;;;;;;2.85;100.00;98868.13;5086577;28;20071;-86
2023/03/12 05:25:40;;;;;;;9.85;3.92;;;;;;;2.53;100.00;98828.78;5075138;28;20044;-86
2023/03/12 05:28:07;;;;;;;11.30;3.90;;;;;;;2.38;100.00;98795.75;5062881;28;20053;-86
2023/03/12 05:30:34;;;;;;;8.73;3.85;;;;;;;2.85;100.00;98861.25;5069968;28;20070;-86
2023/03/12 05:33:00;;;;;;;7.78;2.83;;;;;;;2.59;100.00;98805.31;5062827;28;20053;-87
2023/03/12 05:35:27;;;;;;;8.15;3.17;;;;;;;2.55;100.00;98808.94;5055977;28;20045;-86
2023/03/12 05:37:54;;;;;;;10.40;4.25;;;;;;;2.69;100.00;98839.41;5071747;28;20074;-86
2023/03/12 05:40:20;;;;;;;8.20;4.35;;;;;;;2.36;100.00;98816.47;5073695;28;20041;-87
2023/03/12 05:42:47;;;;;;;7.40;2.95;;;;;;;2.58;100.00;98810.53;5073141;28;20059;-86
2023/03/12 05:45:14;;;;;;;6.93;2.90;;;;;;;2.39;100.00;98792.25;5086791;28;20044;-86
2023/03/12 05:47:41;;;;;;;6.68;2.75;;;;;;;2.29;100.00;98781.44;5083889;28;20122;-86
2023/03/12 05:50:10;;;;;;;6.57;2.60;;;;;;;2.42;100.00;98793.00;5059728;28;20045;-86
2023/03/12 05:52:36;;;;;;;5.55;2.55;;;;;;;2.45;100.00;98786.91;5066682;28;20053;-86
2023/03/12 05:55:04;;;;;;;5.97;2.50;;;;;;;2.37;100.00;98779.41;5067832;28;20056;-86
2023/03/12 05:57:30;;;;;;;6.38;2.78;;;;;;;2.63;100.00;98817.22;5074870;28;20048;-87
2023/03/12 05:59:57;;;;;;;8.88;3.60;;;;;;;2.39;100.00;98800.00;5067432;28;20045;-85
2023/03/12 06:02:24;;;;;;;7.60;3.03;;;;;;;2.36;100.00;98792.38;5071161;28;20052;-85
2023/03/12 06:04:51;;;;;;;7.28;3.10;;;;;;;2.17;100.00;98759.44;5071448;28;20147;-87
2023/03/12 06:07:17;;;;;;;6.53;2.72;;;;;;;2.54;100.00;98824.47;5083711;28;20485;-87
2023/03/12 06:09:44;;;;;;;8.40;3.60;;;;;;;2.07;100.00;98777.00;5060158;28;20048;-85
2023/03/12 06:12:11;;;;;;;6.38;2.95;;;;;;;2.03;100.00;98780.56;5075694;28;20464;-86
2023/03/12 06:14:38;;;;;;;5.78;2.30;;;;;;;2.34;100.00;98792.44;5054988;28;20406;-86
2023/03/12 06:17:04;;;;;;;6.50;2.50;;;;;;;2.49;100.00;98777.28;5069380;28;20049;-86
2023/03/12 06:19:31;;;;;;;6.10;2.50;;;;;;;2.51;100.00;98799.56;5077060;28;20044;-86
2023/03/12 06:21:58;;;;;;;6.22;2.53;;;;;;;2.50;100.00;98778.97;5086621;28;20048;-86
2023/03/12 06:24:25;;;;;;;6.30;2.63;;;;;;;2.83;100.00;98823.41;5082858;28;20056;-85
2023/03/12 06:26:51;;;;;;;6.28;2.53;;;;;;;2.65;100.00;98778.41;5070342;28;20379;-85
2023/03/12 06:29:18;;;;;;;5.57;2.33;;;;;;;2.49;100.00;98772.13;5064584;28;20052;-86
2023/03/12 06:31:46;;;;;;;6.28;2.97;;;;;;;2.49;100.00;98746.28;5085917;28;20044;-86
2023/03/12 06:34:15;;;;;;;7.82;3.03;;;;;;;2.49;100.00;98754.03;5061140;28;20051;-86
2023/03/12 06:36:42;;;;;;;5.72;2.33;;;;;;;2.90;100.00;98821.44;5074316;28;20052;-85
2023/03/12 06:39:09;;;;;;;6.60;2.63;;;;;;;2.47;100.00;98739.44;5084366;28;20051;-86
2023/03/12 06:41:36;;;;;;;6.53;2.97;;;;;;;3.01;100.00;98806.38;5077605;28;20040;-86
2023/03/12 06:44:04;;;;;;;6.80;3.15;;;;;;;2.35;100.00;98708.88;5072176;28;20435;-86
2023/03/12 06:46:32;;;;;;;9.55;3.42;;;;;;;2.47;100.00;98744.59;5076552;28;20510;-86
2023/03/12 06:48:59;;;;;;;8.05;3.38;;;;;;;2.59;100.00;98750.22;5056317;28;20048;-86
2023/03/12 06:51:25;;;;;;;6.55;2.58;;;;;;;2.81;100.00;98768.34;5084465;28;20044;-86
2023/03/12 06:53:52;;;;;;;7.05;2.97;;;;;;;2.72;100.00;98753.19;5090652;28;20048;-85
2023/03/12 06:56:19;;;;;;;7.13;3.00;;;;;;;2.96;100.00;98774.72;5073261;28;20048;-86
2023/03/12 06:58:45;;;;;;;8.20;3.40;;;;;;;2.77;100.00;98746.13;5082610;28;20067;-85
2023/03/12 07:01:12;;;;;;;9.00;3.92;;;;;;;2.65;100.00;98737.06;5084292;28;20041;-86
2023/03/12 07:03:39;;;;;;;6.10;2.72;;;;;;;2.49;100.00;98713.53;5071202;28;20044;-86
2023/03/12 07:06:13;;;;;;;7.50;3.03;;;;;;;3.14;100.00;98792.09;5075864;28;20425;-86
2023/03/12 07:08:40;;;;;;;8.70;3.90;;;;;;;2.79;100.00;98758.06;5063315;28;20049;-86
2023/03/12 07:11:06;;;;;;;8.65;3.88;;;;;;;2.82;100.00;98754.53;5073417;28;20052;-86
2023/03/12 07:13:34;;;;;;;9.13;4.18;;;;;;;2.60;100.00;98739.84;5056392;28;20049;-87
2023/03/12 07:16:01;;;;;;;9.55;4.47;;;;;;;2.71;100.00;98743.75;5056429;28;20046;-87
2023/03/12 07:18:28;;;;;;;8.07;3.58;;;;;;;3.11;100.00;98791.38;5073689;28;20461;-86
2023/03/12 07:20:55;;;;;;;8.38;3.72;;;;;;;2.78;100.00;98752.94;5065488;28;20059;-86
2023/03/12 07:23:22;;;;;;;8.15;3.63;;;;;;;2.63;100.00;98733.72;5075910;28;20390;-86
2023/03/12 07:25:49;;;;;;;8.18;3.40;;;;;;;2.86;100.00;98753.53;5093627;28;20052;-87
2023/03/12 07:28:16;;;;;;;8.30;3.55;;;;;;;3.22;100.00;98782.31;5075572;28;20052;-86
2023/03/12 07:30:49;;;;;;;8.88;3.85;;;;;;;3.16;100.00;98772.19;5094024;28;20051;-86
2023/03/12 07:33:20;;;;;;;8.80;3.88;;;;;;;3.15;100.00;98775.69;5080000;28;20401;-86
2023/03/12 07:35:47;;;;;;;9.02;3.53;;;;;;;3.10;100.00;98743.13;5079397;28;20066;-87
2023/03/12 07:38:17;;;;;;;7.03;2.92;;;;;;;3.04;100.00;98726.13;5080344;28;20139;-86
2023/03/12 07:40:48;;;;;;;6.93;2.90;;;;;;;2.91;100.00;98701.66;5079037;28;20072;-87
2023/03/12 07:43:15;;;;;;;8.57;4.07;;;;;;;2.83;100.00;98683.84;5079181;28;20079;-85
2023/03/12 07:45:45;;;;;;;7.68;3.22;;;;;;;2.93;100.00;98695.50;5095580;28;20079;-86
2023/03/12 07:48:12;;;;;;;8.35;3.58;;;;;;;2.86;100.00;98670.81;5079826;28;20066;-87
2023/03/12 07:50:40;;;;;;;7.38;3.03;;;;;;;3.49;100.00;98764.00;5079095;28;20465;-86
2023/03/12 07:53:07;;;;;;;6.93;2.80;;;;;;;3.52;100.00;98752.69;5095958;28;20059;-86
2023/03/12 07:55:34;;;;;;;6.10;2.67;;;;;;;3.32;100.00;98706.94;5095659;28;20504;-87
2023/03/12 07:58:01;;;;;;;6.53;2.70;;;;;;;3.34;100.00;98707.69;5096198;28;20054;-87
2023/03/12 08:00:29;;;;;;;6.70;2.85;;;;;;;3.60;100.00;98733.34;5078609;28;20039;-87
2023/03/12 08:02:56;;;;;;;7.07;2.83;;;;;;;3.44;100.00;98715.94;5078571;28;20052;-87
2023/03/12 08:05:24;;;;;;;7.15;3.05;;;;;;;3.60;100.00;98724.75;5078406;28;20055;-87
2023/03/12 08:07:51;;;;;;;7.28;3.15;;;;;;;3.67;100.00;98722.75;5078085;28;20052;-87
2023/03/12 08:10:19;;;;;;;7.35;3.28;;;;;;;3.67;100.00;98715.84;5077546;28;20040;-87
2023/03/12 08:12:47;;;;;;;8.35;3.63;;;;;;;3.60;100.00;98678.19;5094542;28;20135;-88
2023/03/12 08:15:15;;;;;;;9.82;4.57;;;;;;;3.80;100.00;98729.94;5088155;28;20383;-88
2023/03/12 08:17:42;;;;;;;8.02;3.58;;;;;;;3.57;100.00;98717.13;5057859;28;20497;-87
2023/03/12 08:20:09;;;;;;;8.45;3.78;;;;;;;3.63;100.00;98709.09;5057948;28;20475;-88
2023/03/12 08:22:37;;;;;;;8.65;3.95;;;;;;;3.42;100.00;98670.28;5094744;28;20470;-88
2023/03/12 08:25:05;;;;;;;7.57;3.30;;;;;;;3.90;100.00;98732.16;5077364;28;20048;-87
2023/03/12 08:27:32;;;;;;;8.55;3.75;;;;;;;3.92;100.00;98720.81;5077859;28;20478;-87
2023/03/12 08:29:59;;;;;;;8.77;3.70;;;;;;;3.98;100.00;98717.13;5077502;28;20393;-88
2023/03/12 08:32:26;;;;;;;7.22;2.78;;;;;;;3.86;100.00;98677.06;5095082;28;20473;-87
2023/03/12 08:34:53;;;;;;;7.47;2.95;;;;;;;4.18;100.00;98716.28;5077105;28;20052;-86
2023/03/12 08:37:20;;;;;;;8.32;3.55;;;;;;;3.85;100.00;98672.78;5067056;28;20063;-89
2023/03/12 08:39:46;;;;;;;7.95;3.35;;;;;;;3.71;100.00;98639.72;5073262;28;20053;-88
2023/03/12 08:42:13;;;;;;;6.68;2.63;;;;;;;3.83;100.00;98661.66;5056264;28;20523;-88
2023/03/12 08:44:40;;;;;;;7.00;3.05;;;;;;;3.66;100.00;98633.06;5060856;28;20045;-88
2023/03/12 08:47:06;;;;;;;8.70;3.42;;;;;;;4.21;100.00;98703.16;5057302;28;20056;-88
2023/03/12 08:49:33;;;;;;;7.88;3.28;;;;;;;3.96;100.00;98651.59;5077143;28;20501;-88
2023/03/12 08:52:00;;;;;;;8.45;3.70;;;;;;;4.18;100.00;98698.97;5064383;28;20045;-88
2023/03/12 08:54:27;;;;;;;7.00;3.08;;;;;;;3.99;100.00;98649.72;5066988;28;20052;-88
2023/03/12 08:56:54;;;;;;;7.55;3.05;;;;;;;4.16;100.00;98651.56;5093293;28;20048;-88
2023/03/12 08:59:22;;;;;;;8.50;4.05;;;;;;;4.36;100.00;98650.66;5076752;28;20055;-88
2023/03/12 09:01:49;;;;;;;8.20;3.33;;;;;;;4.19;100.00;98642.81;5063834;28;20052;-88
2023/03/12 09:04:16;;;;;;;7.30;2.80;;;;;;;4.42;100.00;98669.44;5072963;28;20059;-88
2023/03/12 09:06:42;;;;;;;8.32;3.90;;;;;;;4.15;100.00;98620.56;5056428;28;20121;-86
2023/03/12 09:09:09;;;;;;;7.47;3.17;;;;;;;4.41;100.00;98649.63;5056214;28;20052;-86
2023/03/12 09:11:38;;;;;;;7.30;2.92;;;;;;;4.43;100.00;98674.56;5063234;28;20417;-85
2023/03/12 09:14:05;;;;;;;6.78;3.15;;;;;;;4.72;100.00;98709.50;5063606;28;20105;-86
2023/03/12 09:16:52;;;;;;;8.82;3.85;;;;;;;4.64;100.00;98706.44;5068293;28;20478;-86
2023/03/12 09:19:19;;;;;;;7.32;3.03;;;;;;;4.53;100.00;98688.78;5064586;28;20481;-86
2023/03/12 09:21:46;;;;;;;7.70;2.70;;;;;;;4.42;100.00;98670.28;5061897;28;20040;-85
2023/03/12 09:24:13;;;;;;;7.40;3.10;;;;;;;4.71;100.00;98704.38;5063405;28;20047;-86
2023/03/12 09:26:40;;;;;;;8.60;4.40;;;;;;;4.50;100.00;98664.75;5078728;28;20098;-87
2023/03/12 09:29:07;;;;;;;8.00;3.35;;;;;;;4.22;100.00;98623.72;5073115;28;20055;-88
2023/03/12 09:31:35;;;;;;;6.28;2.60;;;;;;;4.78;100.00;98674.69;5056281;28;20063;-87
2023/03/12 09:34:03;;;;;;;6.50;2.75;;;;;;;4.84;100.00;98648.47;5068820;28;20043;-87
2023/03/12 09:36:30;;;;;;;6.32;2.63;;;;;;;4.98;100.00;98668.56;5063346;28;20059;-86
2023/03/12 09:38:56;;;;;;;6.63;2.65;;;;;;;4.73;100.00;98648.16;5070582;28;20067;-86
2023/03/12 09:41:27;;;;;;;6.93;2.75;;;;;;;5.05;100.00;98667.34;5058833;28;20036;-86
2023/03/12 09:44:08;;;;;;;6.13;2.55;;;;;;;5.17;100.00;98671.13;5075770;28;20528;-86
2023/03/12 09:46:45;;;;;;;6.95;2.75;;;;;;;5.48;100.00;98699.00;5054715;28;20052;-86
2023/03/12 09:49:43;;;;;;;7.47;3.30;;;;;;;5.47;100.00;98704.25;5064582;28;20102;-85
2023/03/12 09:52:54;;;;;;;6.20;2.55;;;;;;;5.32;100.00;98674.72;5064132;28;20089;-85
2023/03/12 09:55:23;;;;;;;6.28;2.70;;;;;;;5.12;100.00;98649.75;4997319;28;20056;-84
2023/03/12 09:57:50;;;;;;;6.35;2.63;;;;;;;5.56;100.00;98708.16;5044127;28;20048;-85
2023/03/12 10:00:21;;;;;;;5.85;2.20;;;;;;;5.65;100.00;98707.72;5062981;28;20104;-86
2023/03/12 10:03:15;;;;;;;6.75;3.00;;;;;;;5.32;100.00;98654.78;5059627;28;20082;-85
2023/03/12 10:05:45;;;;;;;;;;;;;;;5.53;100.00;98706.56;5064528;28;20083;-86
2023/03/12 10:08:21;;;;;;;6.13;2.25;;;;;;;5.65;100.00;98698.16;5072189;28;19928;-87
2023/03/12 10:11:21;;;;;;;5.93;2.00;;;;;;;5.82;100.00;98714.66;5081446;28;20044;-87
2023/03/12 10:13:47;;;;;;;;;;;;;;;5.57;100.00;98692.50;5062315;28;20052;-87
2023/03/12 10:16:40;;;;;;;6.25;2.47;;;;;;;5.35;100.00;98638.22;5067899;28;19920;-86
2023/03/12 10:19:13;;;;;;;6.35;2.70;;;;;;;6.07;100.00;98709.06;5064770;28;20063;-86
2023/03/12 10:22:07;;;;;;;5.30;2.15;;;;;;;6.18;100.00;98695.50;5067902;28;20048;-86
2023/03/12 10:24:55;;;;;;;5.68;2.28;;;;;;;6.38;100.00;98702.28;5070337;28;20058;-88
2023/03/12 10:27:26;;;;;;;5.93;2.33;;;;;;;6.36;100.00;98699.78;5064960;28;20052;-87
2023/03/12 10:29:55;;;;;;;7.13;3.13;;;;;;;6.22;100.00;98681.47;5056048;28;20044;-87
2023/03/12 10:32:40;;;;;;;6.30;2.53;;;;;;;6.39;100.00;98642.44;5081644;28;20048;-87
2023/03/12 10:35:20;;;;;;;7.50;2.97;;;;;;;6.57;100.00;98670.94;5069751;28;20052;-88
2023/03/12 10:37:52;;;;;;;5.78;2.42;;;;;;;6.85;100.00;98698.88;5071121;28;20122;-87
2023/03/12 10:40:25;;;;;;;7.78;3.00;;;;;;;6.72;100.00;98690.06;5057189;28;20048;-87
2023/03/12 10:42:52;;;;;;;6.13;2.42;;;;;;;6.69;100.00;98628.66;5086038;28;20048;-87
2023/03/12 10:45:31;;;;;;;6.70;2.60;;;;;;;6.50;100.00;98635.78;5070603;28;20052;-87
2023/03/12 10:48:07;;;;;;;7.20;2.65;;;;;;;6.86;100.00;98697.13;5074537;28;20163;-86
2023/03/12 10:50:36;;;;;;;5.93;2.35;;;;;;;6.99;100.00;98703.31;5056024;28;20051;-87
2023/03/12 10:53:19;;;;;;;4.05;1.70;;;;;;;7.15;100.00;98675.53;5075976;28;20485;-86
2023/03/12 10:56:09;;;;;;;5.75;2.38;;;;;;;6.60;100.00;98649.97;5070449;28;20808;-87
2023/03/12 10:58:37;;;;;;;5.95;2.63;;;;;;;6.95;100.00;98681.00;5060305;28;20041;-87
2023/03/12 11:01:14;;;;;;;7.32;2.75;;;;;;;7.11;100.00;98720.03;5088645;28;20131;-86
2023/03/12 11:03:42;;;;;;;7.47;2.80;;;;;;;7.18;100.00;98667.53;5075873;28;20112;-87
2023/03/12 11:06:23;;;;;;;6.53;2.22;;;;;;;7.36;100.00;98686.47;5094453;28;20056;-86
2023/03/12 11:09:08;;;;;;;7.57;3.30;;;;;;;7.64;100.00;98710.09;5084625;28;20052;-87
2023/03/12 11:11:46;;;;;;;8.02;3.70;;;;;;;7.39;100.00;98681.09;5076546;28;20174;-85
2023/03/12 11:14:20;;;;;;;6.78;2.75;;;;;;;7.27;100.00;98618.50;5072192;28;20044;-86
2023/03/12 11:16:48;;;;;;;7.32;2.70;;;;;;;8.02;100.00;98699.19;5078356;28;20412;-86
2023/03/12 11:19:34;;;;;;;6.88;2.75;;;;;;;7.84;100.00;98652.44;5063019;28;20049;-86
2023/03/12 11:22:03;;;;;;;6.47;2.83;;;;;;;8.07;100.00;98682.34;5077167;28;20048;-86
2023/03/12 11:24:30;;;;;;;5.22;2.00;;;;;;;8.30;100.00;98691.38;5095989;28;20055;-86
2023/03/12 11:27:09;;;;;;;5.68;2.10;;;;;;;8.69;100.00;98715.13;5078997;28;20478;-86
2023/03/12 11:29:45;;;;;;;6.10;2.42;;;;;;;8.54;100.00;98709.94;5065674;28;20048;-86
2023/03/12 11:32:28;;;;;;;7.60;3.05;;;;;;;8.04;100.00;98689.50;5072722;28;20054;-86
2023/03/12 11:34:56;;;;;;;5.68;2.10;;;;;;;8.36;100.00;98716.25;5080442;28;20426;-86
2023/03/12 11:37:50;;;;;;;6.97;2.50;;;;;;;8.30;100.00;98674.91;5075682;28;20097;-86
2023/03/12 11:40:31;;;;;;;5.30;2.30;;;;;;;8.68;100.00;98696.06;5086300;28;20387;-85
2023/03/12 11:43:24;;;;;;;5.88;2.20;;;;;;;8.80;100.00;98725.78;5067104;28;20049;-86